Wetterdaten: Woche 21.09.09 - 27.09.09 (KW39)
Datum Zeit Temp. Innen Temp. Aussen UV X Diff Temp. Feuchte Inne Feuchte Auss Sonnenschein Luftdruck Regen ab 0,1 Wind Sonnenschein Windben
21.09.2009 00:00 22,2 C 15,2 C 0,0 UV-I 0,0 C 64 % 88 % 0 % 1024,5 hPa 0,0 l/m 0,2 km/h (0 Bft) 0,00 h 0,7 km/h (0 Bft)
21.09.2009 01:00 22,1 C 14,3 C 0,0 UV-I 0,0 C 64 % 89 % 0 % 1024,7 hPa 0,0 l/m 0,0 km/h (0 Bft) 0,00 h 0,0 km/h (0 Bft)
21.09.2009 02:00 21,9 C 13,6 C 0,0 UV-I 0,0 C 64 % 90 % 0 % 1024,6 hPa 0,0 l/m 0,1 km/h (0 Bft) 0,00 h 0,1 km/h (0 Bft)
21.09.2009 03:00 21,8 C 13,2 C 0,0 UV-I 0,0 C 64 % 92 % 0 % 1025,0 hPa 0,0 l/m 0,1 km/h (0 Bft) 0,00 h 0,4 km/h (0 Bft)
21.09.2009 04:00 21,6 C 12,9 C 0,0 UV-I 0,0 C 63 % 92 % 0 % 1025,3 hPa 0,0 l/m 0,1 km/h (0 Bft) 0,00 h 0,4 km/h (0 Bft)
21.09.2009 05:00 21,5 C 12,5 C 0,0 UV-I 0,0 C 63 % 93 % 0 % 1025,5 hPa 0,0 l/m 0,1 km/h (0 Bft) 0,00 h 0,2 km/h (0 Bft)
21.09.2009 06:00 21,4 C 12,1 C 0,0 UV-I 0,0 C 63 % 93 % 0 % 1025,4 hPa 0,0 l/m 0,0 km/h (0 Bft) 0,00 h 0,0 km/h (0 Bft)
21.09.2009 07:00 21,2 C 11,8 C 0,0 UV-I 0,0 C 62 % 93 % 0 % 1025,9 hPa 0,0 l/m 0,0 km/h (0 Bft) 0,00 h 0,0 km/h (0 Bft)
21.09.2009 08:00 21,2 C 12,0 C 0,1 UV-I 0,0 C 62 % 94 % 1 % 1026,4 hPa 0,0 l/m 0,1 km/h (0 Bft) 0,00 h 0,3 km/h (0 Bft)
21.09.2009 09:00 21,2 C 12,8 C 0,7 UV-I 0,9 C 63 % 95 % 25 % 1026,9 hPa 0,0 l/m 0,2 km/h (0 Bft) 0,13 h 0,3 km/h (0 Bft)
21.09.2009 10:00 21,4 C 14,5 C 2,6 UV-I 6,3 C 62 % 94 % 100 % 1027,1 hPa 0,0 l/m 0,9 km/h (0 Bft) 0,87 h 1,9 km/h (1 Bft)
21.09.2009 11:00 21,6 C 17,2 C 6,5 UV-I 6,8 C 62 % 86 % 100 % 1027,4 hPa 0,0 l/m 1,6 km/h (1 Bft) 0,87 h 2,8 km/h (1 Bft)
21.09.2009 12:00 22,0 C 20,0 C 10,0 UV-I 7,1 C 62 % 73 % 100 % 1027,4 hPa 0,0 l/m 1,4 km/h (1 Bft) 0,83 h 2,6 km/h (1 Bft)
21.09.2009 13:00 22,8 C 21,8 C 8,6 UV-I 5,9 C 59 % 61 % 100 % 1027,8 hPa 0,0 l/m 2,9 km/h (1 Bft) 0,97 h 4,5 km/h (1 Bft)
21.09.2009 14:00 23,9 C 23,0 C 7,6 UV-I 4,9 C 55 % 54 % 100 % 1029,5 hPa 0,0 l/m 1,6 km/h (1 Bft) 1,00 h 2,4 km/h (1 Bft)
21.09.2009 15:00 24,8 C 22,9 C 3,8 UV-I 4,0 C 52 % 49 % 97 % 1030,4 hPa 0,0 l/m 3,3 km/h (1 Bft) 1,00 h 5,6 km/h (1 Bft)
21.09.2009 16:00 25,2 C 22,4 C 2,0 UV-I 3,8 C 50 % 50 % 98 % 1029,4 hPa 0,0 l/m 3,6 km/h (1 Bft) 1,00 h 5,0 km/h (1 Bft)
21.09.2009 17:00 24,9 C 21,2 C 0,9 UV-I 1,9 C 50 % 50 % 56 % 1028,0 hPa 0,0 l/m 3,2 km/h (1 Bft) 0,13 h 4,7 km/h (1 Bft)
21.09.2009 18:00 24,1 C 20,1 C 0,0 UV-I 0,0 C 51 % 53 % 1 % 1027,0 hPa 0,0 l/m 0,5 km/h (0 Bft) 0,00 h 0,5 km/h (0 Bft)
21.09.2009 19:00 23,5 C 18,5 C 0,0 UV-I 0,0 C 52 % 60 % 0 % 1026,8 hPa 0,0 l/m 0,1 km/h (0 Bft) 0,00 h 0,2 km/h (0 Bft)
21.09.2009 20:00 22,8 C 16,4 C 0,0 UV-I 0,0 C 54 % 68 % 0 % 1026,7 hPa 0,0 l/m 0,0 km/h (0 Bft) 0,00 h 0,0 km/h (0 Bft)
21.09.2009 21:00 22,4 C 14,5 C 0,0 UV-I 0,0 C 55 % 76 % 0 % 1027,0 hPa 0,0 l/m 0,0 km/h (0 Bft) 0,00 h 0,0 km/h (0 Bft)
21.09.2009 22:00 22,0 C 13,0 C 0,0 UV-I 0,0 C 56 % 80 % 0 % 1026,9 hPa 0,0 l/m 0,0 km/h (0 Bft) 0,00 h 0,0 km/h (0 Bft)
21.09.2009 23:00 21,7 C 11,9 C 0,0 UV-I 0,0 C 56 % 84 % 0 % 1026,8 hPa 0,0 l/m 0,0 km/h (0 Bft) 0,00 h 0,0 km/h (0 Bft)
22.09.2009 00:00 21,5 C 11,1 C 0,0 UV-I 0,0 C 56 % 86 % 0 % 1026,7 hPa 0,0 l/m 0,0 km/h (0 Bft) 0,00 h 0,0 km/h (0 Bft)
22.09.2009 01:00 21,3 C 10,5 C 0,0 UV-I 0,0 C 56 % 88 % 0 % 1026,9 hPa 0,0 l/m 0,0 km/h (0 Bft) 0,00 h 0,0 km/h (0 Bft)
22.09.2009 02:00 21,2 C 10,0 C 0,0 UV-I 0,0 C 56 % 89 % 0 % 1026,7 hPa 0,0 l/m 0,0 km/h (0 Bft) 0,00 h 0,0 km/h (0 Bft)
22.09.2009 03:00 21,0 C 9,7 C 0,0 UV-I 0,0 C 56 % 90 % 0 % 1026,5 hPa 0,0 l/m 0,0 km/h (0 Bft) 0,00 h 0,1 km/h (0 Bft)
22.09.2009 04:00 20,8 C 9,6 C 0,0 UV-I 0,0 C 56 % 91 % 0 % 1026,1 hPa 0,0 l/m 0,4 km/h (0 Bft) 0,00 h 0,9 km/h (0 Bft)
22.09.2009 05:00 20,7 C 9,7 C 0,0 UV-I 0,0 C 56 % 91 % 0 % 1026,0 hPa 0,0 l/m 0,7 km/h (0 Bft) 0,00 h 1,1 km/h (1 Bft)
22.09.2009 06:00 20,5 C 9,5 C 0,0 UV-I 0,0 C 55 % 91 % 0 % 1025,8 hPa 0,0 l/m 0,2 km/h (0 Bft) 0,00 h 0,5 km/h (0 Bft)
22.09.2009 07:00 20,3 C 9,3 C 0,0 UV-I 0,0 C 54 % 91 % 0 % 1025,8 hPa 0,0 l/m 1,1 km/h (1 Bft) 0,00 h 2,1 km/h (1 Bft)
22.09.2009 08:00 20,0 C 9,7 C 0,1 UV-I 0,5 C 54 % 92 % 15 % 1025,8 hPa 0,0 l/m 2,8 km/h (1 Bft) 0,00 h 3,6 km/h (1 Bft)
22.09.2009 09:00 20,1 C 11,6 C 0,5 UV-I 2,6 C 56 % 93 % 64 % 1026,0 hPa 0,0 l/m 1,2 km/h (1 Bft) 0,20 h 2,4 km/h (1 Bft)
22.09.2009 10:00 20,3 C 15,2 C 1,9 UV-I 5,4 C 58 % 87 % 99 % 1026,4 hPa 0,0 l/m 2,7 km/h (1 Bft) 0,97 h 4,1 km/h (1 Bft)
22.09.2009 11:00 20,6 C 18,0 C 5,5 UV-I 4,8 C 58 % 75 % 99 % 1026,6 hPa 0,0 l/m 4,0 km/h (1 Bft) 0,80 h 6,8 km/h (2 Bft)
22.09.2009 12:00 20,9 C 20,1 C 8,1 UV-I 4,8 C 57 % 66 % 98 % 1026,8 hPa 0,0 l/m 5,4 km/h (1 Bft) 0,97 h 8,0 km/h (2 Bft)
22.09.2009 13:00 21,8 C 22,1 C 9,4 UV-I 5,0 C 56 % 58 % 100 % 1026,6 hPa 0,0 l/m 5,9 km/h (2 Bft) 1,00 h 8,8 km/h (2 Bft)
22.09.2009 14:00 23,3 C 23,5 C 11,3 UV-I 4,3 C 50 % 49 % 100 % 1029,2 hPa 0,0 l/m 5,7 km/h (1 Bft) 0,97 h 8,5 km/h (2 Bft)
22.09.2009 15:00 25,0 C 24,6 C 5,4 UV-I 4,8 C 44 % 44 % 100 % 1030,4 hPa 0,0 l/m 4,7 km/h (1 Bft) 0,90 h 7,8 km/h (2 Bft)
22.09.2009 16:00 26,1 C 24,6 C 1,5 UV-I 4,9 C 42 % 43 % 100 % 1029,5 hPa 0,0 l/m 3,8 km/h (1 Bft) 0,90 h 5,5 km/h (1 Bft)
22.09.2009 17:00 25,5 C 23,8 C 0,9 UV-I 3,5 C 42 % 44 % 77 % 1027,0 hPa 0,0 l/m 3,3 km/h (1 Bft) 0,53 h 5,4 km/h (1 Bft)
22.09.2009 18:00 24,3 C 22,6 C 0,2 UV-I 0,0 C 43 % 46 % 1 % 1025,5 hPa 0,0 l/m 2,5 km/h (1 Bft) 0,00 h 3,3 km/h (1 Bft)
22.09.2009 19:00 23,5 C 20,9 C 0,0 UV-I 0,0 C 46 % 52 % 0 % 1025,2 hPa 0,0 l/m 0,2 km/h (0 Bft) 0,00 h 0,2 km/h (0 Bft)
22.09.2009 20:00 22,8 C 18,3 C 0,0 UV-I 0,0 C 49 % 63 % 0 % 1025,5 hPa 0,0 l/m 0,0 km/h (0 Bft) 0,00 h 0,0 km/h (0 Bft)
22.09.2009 21:00 22,3 C 16,1 C 0,0 UV-I 0,0 C 51 % 70 % 0 % 1025,9 hPa 0,0 l/m 0,0 km/h (0 Bft) 0,00 h 0,0 km/h (0 Bft)
22.09.2009 22:00 21,9 C 14,8 C 0,0 UV-I 0,0 C 52 % 75 % 0 % 1025,9 hPa 0,0 l/m 0,0 km/h (0 Bft) 0,00 h 0,0 km/h (0 Bft)
22.09.2009 23:00 21,5 C 14,2 C 0,0 UV-I 0,0 C 52 % 75 % 0 % 1025,9 hPa 0,0 l/m 0,3 km/h (0 Bft) 0,00 h 0,5 km/h (0 Bft)
23.09.2009 00:00 21,2 C 13,4 C 0,0 UV-I 0,0 C 52 % 78 % 0 % 1026,1 hPa 0,0 l/m 0,0 km/h (0 Bft) 0,00 h 0,0 km/h (0 Bft)
23.09.2009 01:00 21,0 C 12,4 C 0,0 UV-I 0,0 C 53 % 82 % 0 % 1025,8 hPa 0,0 l/m 0,0 km/h (0 Bft) 0,00 h 0,0 km/h (0 Bft)
23.09.2009 02:00 20,7 C 11,6 C 0,0 UV-I 0,0 C 54 % 85 % 0 % 1025,9 hPa 0,0 l/m 0,0 km/h (0 Bft) 0,00 h 0,0 km/h (0 Bft)
23.09.2009 03:00 20,4 C 11,9 C 0,0 UV-I 0,0 C 55 % 88 % 0 % 1025,9 hPa 0,0 l/m 0,5 km/h (0 Bft) 0,00 h 1,4 km/h (1 Bft)
23.09.2009 04:00 20,2 C 12,6 C 0,0 UV-I 0,1 C 56 % 88 % 0 % 1025,5 hPa 0,0 l/m 1,2 km/h (1 Bft) 0,00 h 1,7 km/h (1 Bft)
23.09.2009 05:00 20,1 C 13,5 C 0,0 UV-I 0,0 C 57 % 87 % 0 % 1025,5 hPa 0,0 l/m 2,5 km/h (1 Bft) 0,00 h 4,8 km/h (1 Bft)
23.09.2009 06:00 20,0 C 14,0 C 0,0 UV-I 0,0 C 59 % 86 % 0 % 1025,3 hPa 0,0 l/m 1,9 km/h (1 Bft) 0,00 h 3,0 km/h (1 Bft)
23.09.2009 07:00 20,0 C 14,3 C 0,0 UV-I 0,0 C 59 % 86 % 0 % 1025,7 hPa 0,0 l/m 1,4 km/h (1 Bft) 0,00 h 2,7 km/h (1 Bft)
23.09.2009 08:00 20,0 C 14,5 C 0,1 UV-I 0,0 C 60 % 86 % 0 % 1026,2 hPa 0,0 l/m 2,3 km/h (1 Bft) 0,00 h 4,0 km/h (1 Bft)
23.09.2009 09:00 19,9 C 15,0 C 0,2 UV-I 0,3 C 62 % 86 % 8 % 1026,3 hPa 0,0 l/m 2,4 km/h (1 Bft) 0,00 h 4,5 km/h (1 Bft)
23.09.2009 10:00 19,9 C 15,2 C 0,8 UV-I 0,1 C 64 % 89 % 3 % 1026,9 hPa 0,0 l/m 2,3 km/h (1 Bft) 0,00 h 3,9 km/h (1 Bft)
23.09.2009 11:00 20,2 C 16,2 C 1,6 UV-I 1,1 C 65 % 88 % 31 % 1027,1 hPa 0,0 l/m 3,2 km/h (1 Bft) 0,00 h 4,8 km/h (1 Bft)
23.09.2009 12:00 20,4 C 16,7 C 2,2 UV-I 0,6 C 65 % 87 % 16 % 1027,3 hPa 0,0 l/m 3,4 km/h (1 Bft) 0,00 h 5,2 km/h (1 Bft)
23.09.2009 13:00 20,9 C 18,2 C 5,2 UV-I 3,5 C 65 % 83 % 84 % 1027,4 hPa 0,0 l/m 4,4 km/h (1 Bft) 0,37 h 7,4 km/h (2 Bft)
23.09.2009 14:00 21,6 C 19,4 C 1,7 UV-I 1,2 C 63 % 78 % 33 % 1027,1 hPa 0,0 l/m 2,8 km/h (1 Bft) 0,00 h 5,4 km/h (1 Bft)
23.09.2009 15:00 21,6 C 19,8 C 0,7 UV-I 0,5 C 62 % 75 % 14 % 1026,6 hPa 0,0 l/m 2,5 km/h (1 Bft) 0,00 h 4,2 km/h (1 Bft)
23.09.2009 16:00 21,4 C 19,2 C 0,0 UV-I 0,0 C 63 % 77 % 0 % 1026,2 hPa 0,0 l/m 2,1 km/h (1 Bft) 0,00 h 3,0 km/h (1 Bft)
23.09.2009 17:00 21,3 C 18,1 C 0,0 UV-I 0,0 C 65 % 84 % 0 % 1026,2 hPa 0,0 l/m 0,7 km/h (0 Bft) 0,00 h 0,8 km/h (0 Bft)
23.09.2009 18:00 21,2 C 17,4 C 0,0 UV-I 0,0 C 66 % 88 % 0 % 1026,1 hPa 0,4 l/m 0,3 km/h (0 Bft) 0,00 h 0,5 km/h (0 Bft)
23.09.2009 19:00 21,1 C 17,0 C 0,0 UV-I 0,0 C 67 % 89 % 0 % 1025,8 hPa 0,0 l/m 0,2 km/h (0 Bft) 0,00 h 0,3 km/h (0 Bft)
23.09.2009 20:00 21,0 C 16,7 C 0,0 UV-I 0,0 C 68 % 90 % 0 % 1026,0 hPa 0,1 l/m 0,0 km/h (0 Bft) 0,00 h 0,0 km/h (0 Bft)
23.09.2009 21:00 20,9 C 16,5 C 0,0 UV-I 0,0 C 68 % 91 % 0 % 1026,2 hPa 0,2 l/m 0,1 km/h (0 Bft) 0,00 h 0,3 km/h (0 Bft)
23.09.2009 22:00 20,9 C 16,3 C 0,0 UV-I 0,0 C 69 % 91 % 0 % 1026,1 hPa 0,0 l/m 0,1 km/h (0 Bft) 0,00 h 0,3 km/h (0 Bft)
23.09.2009 23:00 20,8 C 16,1 C 0,0 UV-I 0,0 C 69 % 92 % 0 % 1025,7 hPa 0,0 l/m 0,0 km/h (0 Bft) 0,00 h 0,1 km/h (0 Bft)
24.09.2009 00:00 20,8 C 16,0 C 0,0 UV-I 0,0 C 68 % 92 % 0 % 1025,4 hPa 0,0 l/m 0,2 km/h (0 Bft) 0,00 h 0,7 km/h (0 Bft)
24.09.2009 01:00 20,8 C 15,9 C 0,0 UV-I 0,0 C 68 % 91 % 0 % 1025,3 hPa 0,0 l/m 0,0 km/h (0 Bft) 0,00 h 0,0 km/h (0 Bft)
24.09.2009 02:00 20,8 C 15,8 C 0,0 UV-I 0,0 C 68 % 92 % 0 % 1024,8 hPa 0,0 l/m 0,1 km/h (0 Bft) 0,00 h 0,3 km/h (0 Bft)
24.09.2009 03:00 20,7 C 15,7 C 0,0 UV-I 0,0 C 68 % 92 % 0 % 1024,7 hPa 0,0 l/m 0,0 km/h (0 Bft) 0,00 h 0,0 km/h (0 Bft)
24.09.2009 04:00 20,7 C 15,7 C 0,0 UV-I 0,0 C 69 % 93 % 0 % 1024,2 hPa 0,0 l/m 0,2 km/h (0 Bft) 0,00 h 0,6 km/h (0 Bft)
24.09.2009 05:00 20,6 C 15,7 C 0,0 UV-I 0,0 C 68 % 93 % 0 % 1023,9 hPa 0,0 l/m 0,1 km/h (0 Bft) 0,00 h 0,2 km/h (0 Bft)
24.09.2009 06:00 20,6 C 15,5 C 0,0 UV-I 0,0 C 68 % 92 % 0 % 1023,9 hPa 0,0 l/m 0,0 km/h (0 Bft) 0,00 h 0,2 km/h (0 Bft)
24.09.2009 07:00 20,6 C 15,3 C 0,0 UV-I 0,0 C 68 % 92 % 0 % 1023,8 hPa 0,3 l/m 0,0 km/h (0 Bft) 0,00 h 0,0 km/h (0 Bft)
24.09.2009 08:00 20,6 C 15,0 C 0,0 UV-I 0,0 C 68 % 93 % 0 % 1024,3 hPa 0,5 l/m 0,2 km/h (0 Bft) 0,00 h 0,3 km/h (0 Bft)
24.09.2009 09:00 20,6 C 14,7 C 0,0 UV-I 0,0 C 67 % 93 % 0 % 1024,7 hPa 0,1 l/m 0,1 km/h (0 Bft) 0,00 h 0,1 km/h (0 Bft)
24.09.2009 10:00 20,7 C 14,9 C 0,4 UV-I 0,2 C 67 % 93 % 5 % 1025,0 hPa 0,0 l/m 0,1 km/h (0 Bft) 0,00 h 0,1 km/h (0 Bft)
24.09.2009 11:00 20,8 C 15,6 C 0,8 UV-I 0,6 C 67 % 93 % 17 % 1025,5 hPa 0,0 l/m 0,1 km/h (0 Bft) 0,00 h 0,6 km/h (0 Bft)
24.09.2009 12:00 21,1 C 17,2 C 4,9 UV-I 4,4 C 66 % 88 % 87 % 1025,6 hPa 0,0 l/m 1,2 km/h (1 Bft) 0,57 h 2,3 km/h (1 Bft)
24.09.2009 13:00 21,7 C 18,9 C 5,5 UV-I 4,4 C 64 % 77 % 86 % 1025,4 hPa 0,0 l/m 1,2 km/h (1 Bft) 0,57 h 2,3 km/h (1 Bft)
24.09.2009 14:00 22,6 C 20,0 C 5,4 UV-I 3,8 C 60 % 67 % 80 % 1026,9 hPa 0,0 l/m 2,8 km/h (1 Bft) 0,50 h 4,7 km/h (1 Bft)
24.09.2009 15:00 23,3 C 20,2 C 2,9 UV-I 3,0 C 55 % 61 % 78 % 1027,4 hPa 0,0 l/m 3,0 km/h (1 Bft) 0,37 h 4,3 km/h (1 Bft)
24.09.2009 16:00 23,8 C 19,8 C 1,4 UV-I 2,0 C 51 % 56 % 55 % 1026,7 hPa 0,0 l/m 1,4 km/h (1 Bft) 0,13 h 2,2 km/h (1 Bft)
24.09.2009 17:00 23,3 C 19,3 C 0,9 UV-I 2,5 C 51 % 57 % 64 % 1025,2 hPa 0,0 l/m 1,6 km/h (1 Bft) 0,33 h 3,4 km/h (1 Bft)
24.09.2009 18:00 22,6 C 18,4 C 0,1 UV-I 0,1 C 51 % 60 % 2 % 1024,8 hPa 0,0 l/m 0,9 km/h (0 Bft) 0,00 h 1,6 km/h (1 Bft)
24.09.2009 19:00 21,9 C 16,7 C 0,0 UV-I 0,0 C 53 % 68 % 0 % 1024,8 hPa 0,0 l/m 0,0 km/h (0 Bft) 0,00 h 0,0 km/h (0 Bft)
24.09.2009 20:00 21,3 C 14,5 C 0,0 UV-I 0,0 C 55 % 76 % 0 % 1025,2 hPa 0,0 l/m 0,0 km/h (0 Bft) 0,00 h 0,0 km/h (0 Bft)
24.09.2009 21:00 20,8 C 13,3 C 0,0 UV-I 0,0 C 56 % 81 % 0 % 1025,6 hPa 0,0 l/m 0,1 km/h (0 Bft) 0,00 h 0,1 km/h (0 Bft)
24.09.2009 22:00 20,6 C 12,9 C 0,0 UV-I 0,0 C 56 % 82 % 0 % 1025,8 hPa 0,0 l/m 0,1 km/h (0 Bft) 0,00 h 0,0 km/h (0 Bft)
24.09.2009 23:00 20,4 C 11,9 C 0,0 UV-I 0,0 C 56 % 84 % 0 % 1026,2 hPa 0,0 l/m 0,0 km/h (0 Bft) 0,00 h 0,0 km/h (0 Bft)
25.09.2009 00:00 20,2 C 11,0 C 0,0 UV-I 0,0 C 56 % 86 % 0 % 1026,5 hPa 0,0 l/m 0,0 km/h (0 Bft) 0,00 h 0,0 km/h (0 Bft)
25.09.2009 01:00 20,0 C 10,3 C 0,0 UV-I 0,0 C 56 % 88 % 0 % 1026,7 hPa 0,0 l/m 0,0 km/h (0 Bft) 0,00 h 0,0 km/h (0 Bft)
25.09.2009 02:00 19,8 C 9,8 C 0,0 UV-I 0,0 C 56 % 90 % 0 % 1026,9 hPa 0,0 l/m 0,0 km/h (0 Bft) 0,00 h 0,0 km/h (0 Bft)
25.09.2009 03:00 19,6 C 9,2 C 0,0 UV-I 0,0 C 56 % 90 % 0 % 1026,9 hPa 0,0 l/m 0,0 km/h (0 Bft) 0,00 h 0,0 km/h (0 Bft)
25.09.2009 04:00 19,4 C 8,5 C 0,0 UV-I 0,0 C 55 % 91 % 0 % 1026,8 hPa 0,0 l/m 0,0 km/h (0 Bft) 0,00 h 0,0 km/h (0 Bft)
25.09.2009 05:00 19,2 C 7,9 C 0,0 UV-I 0,0 C 55 % 91 % 0 % 1026,8 hPa 0,0 l/m 0,0 km/h (0 Bft) 0,00 h 0,0 km/h (0 Bft)
25.09.2009 06:00 19,0 C 7,5 C 0,0 UV-I 0,0 C 55 % 92 % 0 % 1026,5 hPa 0,0 l/m 0,0 km/h (0 Bft) 0,00 h 0,0 km/h (0 Bft)
25.09.2009 07:00 18,8 C 7,1 C 0,0 UV-I 0,0 C 54 % 92 % 0 % 1026,7 hPa 0,0 l/m 0,0 km/h (0 Bft) 0,00 h 0,0 km/h (0 Bft)
25.09.2009 08:00 18,7 C 7,2 C 0,1 UV-I 0,2 C 55 % 93 % 5 % 1027,0 hPa 0,0 l/m 0,0 km/h (0 Bft) 0,00 h 0,0 km/h (0 Bft)
25.09.2009 09:00 18,8 C 9,0 C 0,5 UV-I 1,5 C 57 % 95 % 39 % 1027,5 hPa 0,0 l/m 0,1 km/h (0 Bft) 0,17 h 0,7 km/h (0 Bft)
25.09.2009 10:00 19,1 C 11,9 C 2,2 UV-I 8,9 C 59 % 95 % 100 % 1028,2 hPa 0,0 l/m 1,0 km/h (0 Bft) 0,93 h 1,5 km/h (1 Bft)
25.09.2009 11:00 19,4 C 15,0 C 5,9 UV-I 7,7 C 59 % 86 % 97 % 1028,7 hPa 0,0 l/m 1,3 km/h (1 Bft) 0,73 h 2,3 km/h (1 Bft)
25.09.2009 12:00 19,9 C 17,1 C 6,9 UV-I 5,6 C 58 % 72 % 89 % 1028,8 hPa 0,0 l/m 1,5 km/h (1 Bft) 0,70 h 2,7 km/h (1 Bft)
25.09.2009 13:00 20,6 C 18,9 C 9,9 UV-I 7,5 C 55 % 61 % 100 % 1028,6 hPa 0,0 l/m 1,8 km/h (1 Bft) 0,93 h 2,5 km/h (1 Bft)
25.09.2009 14:00 22,0 C 20,2 C 8,3 UV-I 6,5 C 51 % 55 % 100 % 1030,4 hPa 0,0 l/m 1,5 km/h (1 Bft) 0,73 h 1,8 km/h (1 Bft)
25.09.2009 15:00 23,5 C 21,3 C 4,7 UV-I 6,8 C 47 % 52 % 100 % 1032,1 hPa 0,0 l/m 1,4 km/h (1 Bft) 1,00 h 2,4 km/h (1 Bft)
25.09.2009 16:00 24,4 C 21,1 C 1,6 UV-I 6,1 C 44 % 51 % 100 % 1031,3 hPa 0,0 l/m 2,2 km/h (1 Bft) 0,73 h 3,5 km/h (1 Bft)
25.09.2009 17:00 23,7 C 19,7 C 0,9 UV-I 2,7 C 45 % 54 % 62 % 1028,3 hPa 0,0 l/m 1,9 km/h (1 Bft) 0,43 h 2,5 km/h (1 Bft)
25.09.2009 18:00 22,7 C 18,5 C 0,1 UV-I 0,0 C 47 % 58 % 0 % 1027,5 hPa 0,0 l/m 0,7 km/h (0 Bft) 0,00 h 0,9 km/h (0 Bft)
25.09.2009 19:00 21,7 C 16,7 C 0,0 UV-I 0,0 C 50 % 67 % 0 % 1027,0 hPa 0,0 l/m 0,0 km/h (0 Bft) 0,00 h 0,0 km/h (0 Bft)
25.09.2009 20:00 21,1 C 14,5 C 0,0 UV-I 0,0 C 52 % 74 % 0 % 1027,0 hPa 0,0 l/m 0,0 km/h (0 Bft) 0,00 h 0,0 km/h (0 Bft)
25.09.2009 21:00 20,6 C 12,9 C 0,0 UV-I 0,0 C 54 % 80 % 0 % 1027,4 hPa 0,0 l/m 0,0 km/h (0 Bft) 0,00 h 0,0 km/h (0 Bft)
25.09.2009 22:00 20,3 C 11,5 C 0,0 UV-I 0,0 C 54 % 84 % 0 % 1027,5 hPa 0,0 l/m 0,0 km/h (0 Bft) 0,00 h 0,0 km/h (0 Bft)
25.09.2009 23:00 20,0 C 10,6 C 0,0 UV-I 0,0 C 54 % 86 % 0 % 1027,9 hPa 0,0 l/m 0,0 km/h (0 Bft) 0,00 h 0,0 km/h (0 Bft)
26.09.2009 00:00 19,7 C 9,9 C 0,0 UV-I 0,0 C 54 % 88 % 0 % 1027,5 hPa 0,0 l/m 0,0 km/h (0 Bft) 0,00 h 0,0 km/h (0 Bft)
26.09.2009 01:00 19,6 C 9,3 C 0,0 UV-I 0,0 C 54 % 89 % 0 % 1027,4 hPa 0,0 l/m 0,0 km/h (0 Bft) 0,00 h 0,0 km/h (0 Bft)
26.09.2009 02:00 19,4 C 8,7 C 0,0 UV-I 0,0 C 54 % 90 % 0 % 1027,5 hPa 0,0 l/m 0,0 km/h (0 Bft) 0,00 h 0,0 km/h (0 Bft)
26.09.2009 03:00 19,2 C 8,2 C 0,0 UV-I 0,0 C 54 % 90 % 0 % 1027,3 hPa 0,0 l/m 0,0 km/h (0 Bft) 0,00 h 0,0 km/h (0 Bft)
26.09.2009 04:00 19,1 C 7,7 C 0,0 UV-I 0,0 C 54 % 91 % 0 % 1027,0 hPa 0,0 l/m 0,0 km/h (0 Bft) 0,00 h 0,0 km/h (0 Bft)
26.09.2009 05:00 18,9 C 7,3 C 0,0 UV-I 0,0 C 53 % 91 % 0 % 1027,0 hPa 0,0 l/m 0,0 km/h (0 Bft) 0,00 h 0,0 km/h (0 Bft)
26.09.2009 06:00 18,7 C 6,9 C 0,0 UV-I 0,0 C 54 % 91 % 0 % 1026,7 hPa 0,0 l/m 0,0 km/h (0 Bft) 0,00 h 0,0 km/h (0 Bft)
26.09.2009 07:00 18,3 C 6,5 C 0,0 UV-I 0,0 C 52 % 92 % 0 % 1026,9 hPa 0,0 l/m 0,0 km/h (0 Bft) 0,00 h 0,0 km/h (0 Bft)
26.09.2009 08:00 18,2 C 6,7 C 0,1 UV-I 0,2 C 53 % 93 % 6 % 1027,2 hPa 0,0 l/m 0,0 km/h (0 Bft) 0,00 h 0,0 km/h (0 Bft)
26.09.2009 09:00 18,4 C 8,1 C 0,6 UV-I 1,7 C 56 % 94 % 42 % 1027,7 hPa 0,0 l/m 0,0 km/h (0 Bft) 0,07 h 0,0 km/h (0 Bft)
26.09.2009 10:00 18,7 C 11,4 C 2,3 UV-I 9,2 C 57 % 94 % 100 % 1028,0 hPa 0,0 l/m 0,4 km/h (0 Bft) 0,83 h 0,8 km/h (0 Bft)
26.09.2009 11:00 19,1 C 15,9 C 8,1 UV-I 8,6 C 57 % 84 % 100 % 1028,2 hPa 0,0 l/m 0,6 km/h (0 Bft) 0,90 h 0,8 km/h (0 Bft)
26.09.2009 12:00 19,6 C 19,2 C 10,0 UV-I 7,8 C 56 % 65 % 100 % 1028,1 hPa 0,0 l/m 0,8 km/h (0 Bft) 0,83 h 1,4 km/h (1 Bft)
26.09.2009 13:00 20,6 C 21,6 C 10,5 UV-I 6,5 C 53 % 51 % 100 % 1028,2 hPa 0,0 l/m 1,1 km/h (1 Bft) 0,88 h 2,5 km/h (1 Bft)
26.09.2009 14:00 22,1 C 22,8 C 9,4 UV-I 6,4 C 49 % 46 % 100 % 1030,9 hPa 0,0 l/m 1,4 km/h (1 Bft) 0,90 h 2,5 km/h (1 Bft)
26.09.2009 15:00 23,4 C 22,7 C 4,2 UV-I 6,1 C 45 % 45 % 100 % 1032,0 hPa 0,0 l/m 1,7 km/h (1 Bft) 0,90 h 3,3 km/h (1 Bft)
26.09.2009 16:00 24,1 C 21,8 C 1,6 UV-I 5,7 C 43 % 47 % 100 % 1030,3 hPa 0,0 l/m 1,7 km/h (1 Bft) 0,93 h 2,9 km/h (1 Bft)
26.09.2009 17:00 23,5 C 20,6 C 1,0 UV-I 2,6 C 44 % 49 % 67 % 1027,9 hPa 0,0 l/m 2,1 km/h (1 Bft) 0,47 h 2,2 km/h (1 Bft)
26.09.2009 18:00 22,5 C 19,6 C 0,2 UV-I 0,1 C 46 % 52 % 3 % 1027,1 hPa 0,0 l/m 0,1 km/h (0 Bft) 0,00 h 0,3 km/h (0 Bft)
26.09.2009 19:00 21,9 C 17,9 C 0,0 UV-I 0,0 C 48 % 60 % 0 % 1026,8 hPa 0,0 l/m 0,0 km/h (0 Bft) 0,00 h 0,0 km/h (0 Bft)
26.09.2009 20:00 21,2 C 15,3 C 0,0 UV-I 0,0 C 51 % 70 % 0 % 1027,0 hPa 0,0 l/m 0,0 km/h (0 Bft) 0,00 h 0,0 km/h (0 Bft)
26.09.2009 21:00 20,6 C 13,1 C 0,0 UV-I 0,0 C 53 % 77 % 0 % 1027,3 hPa 0,0 l/m 0,0 km/h (0 Bft) 0,00 h 0,0 km/h (0 Bft)
26.09.2009 22:00 20,3 C 11,9 C 0,0 UV-I 0,0 C 53 % 81 % 0 % 1027,3 hPa 0,0 l/m 0,0 km/h (0 Bft) 0,00 h 0,0 km/h (0 Bft)
26.09.2009 23:00 19,9 C 10,8 C 0,0 UV-I 0,0 C 53 % 84 % 0 % 1027,1 hPa 0,0 l/m 0,0 km/h (0 Bft) 0,00 h 0,0 km/h (0 Bft)
27.09.2009 00:00 19,7 C 10,0 C 0,0 UV-I 0,0 C 53 % 86 % 0 % 1026,9 hPa 0,0 l/m 0,0 km/h (0 Bft) 0,00 h 0,0 km/h (0 Bft)
27.09.2009 01:00 19,5 C 9,4 C 0,0 UV-I 0,0 C 53 % 88 % 0 % 1026,9 hPa 0,0 l/m 0,0 km/h (0 Bft) 0,00 h 0,0 km/h (0 Bft)
27.09.2009 02:00 19,3 C 8,9 C 0,0 UV-I 0,0 C 53 % 89 % 0 % 1026,5 hPa 0,0 l/m 0,0 km/h (0 Bft) 0,00 h 0,0 km/h (0 Bft)
27.09.2009 03:00 19,1 C 8,5 C 0,0 UV-I 0,0 C 53 % 90 % 0 % 1026,4 hPa 0,0 l/m 0,0 km/h (0 Bft) 0,00 h 0,0 km/h (0 Bft)
27.09.2009 04:00 18,9 C 8,0 C 0,0 UV-I 0,0 C 53 % 90 % 0 % 1026,2 hPa 0,0 l/m 0,1 km/h (0 Bft) 0,00 h 0,1 km/h (0 Bft)
27.09.2009 05:00 18,8 C 7,6 C 0,0 UV-I 0,0 C 53 % 91 % 0 % 1026,2 hPa 0,0 l/m 0,0 km/h (0 Bft) 0,00 h 0,0 km/h (0 Bft)
27.09.2009 06:00 18,6 C 7,2 C 0,0 UV-I 0,0 C 52 % 91 % 0 % 1026,2 hPa 0,0 l/m 0,0 km/h (0 Bft) 0,00 h 0,0 km/h (0 Bft)
27.09.2009 07:00 18,4 C 6,7 C 0,0 UV-I 0,0 C 52 % 91 % 0 % 1026,1 hPa 0,0 l/m 0,0 km/h (0 Bft) 0,00 h 0,0 km/h (0 Bft)
27.09.2009 08:00 18,4 C 6,8 C 0,1 UV-I 0,2 C 54 % 92 % 7 % 1026,3 hPa 0,0 l/m 0,0 km/h (0 Bft) 0,00 h 0,1 km/h (0 Bft)
27.09.2009 09:00 18,4 C 8,3 C 0,7 UV-I 1,9 C 56 % 94 % 45 % 1026,7 hPa 0,0 l/m 0,0 km/h (0 Bft) 0,17 h 0,0 km/h (0 Bft)
27.09.2009 10:00 18,7 C 11,2 C 2,2 UV-I 8,9 C 56 % 94 % 100 % 1027,3 hPa 0,0 l/m 0,0 km/h (0 Bft) 0,73 h 0,3 km/h (0 Bft)
27.09.2009 11:00 19,1 C 15,4 C 6,3 UV-I 8,7 C 57 % 84 % 100 % 1027,6 hPa 0,0 l/m 0,7 km/h (0 Bft) 0,87 h 1,7 km/h (1 Bft)
27.09.2009 12:00 19,5 C 18,3 C 8,6 UV-I 9,1 C 57 % 72 % 100 % 1027,7 hPa 0,0 l/m 0,9 km/h (0 Bft) 0,67 h 1,8 km/h (1 Bft)
27.09.2009 13:00 20,5 C 20,7 C 9,0 UV-I 7,3 C 55 % 60 % 100 % 1027,7 hPa 0,0 l/m 1,9 km/h (1 Bft) 0,80 h 3,1 km/h (1 Bft)
27.09.2009 14:00 22,1 C 22,4 C 6,9 UV-I 6,2 C 52 % 53 % 100 % 1030,1 hPa 0,0 l/m 2,1 km/h (1 Bft) 0,80 h 3,2 km/h (1 Bft)
27.09.2009 15:00 23,4 C 22,8 C 3,5 UV-I 6,0 C 48 % 49 % 100 % 1031,3 hPa 0,0 l/m 2,2 km/h (1 Bft) 1,00 h 3,4 km/h (1 Bft)
27.09.2009 16:00 24,1 C 22,2 C 1,7 UV-I 5,7 C 45 % 49 % 100 % 1030,0 hPa 0,0 l/m 2,4 km/h (1 Bft) 1,00 h 3,6 km/h (1 Bft)
27.09.2009 17:00 23,5 C 21,0 C 1,0 UV-I 2,7 C 46 % 51 % 70 % 1027,8 hPa 0,0 l/m 2,3 km/h (1 Bft) 0,53 h 3,5 km/h (1 Bft)
27.09.2009 18:00 22,5 C 19,8 C 0,2 UV-I 0,0 C 48 % 56 % 0 % 1026,8 hPa 0,0 l/m 0,6 km/h (0 Bft) 0,00 h 0,8 km/h (0 Bft)
27.09.2009 19:00 21,8 C 17,9 C 0,0 UV-I 0,0 C 50 % 65 % 0 % 1026,8 hPa 0,0 l/m 0,0 km/h (0 Bft) 0,00 h 0,0 km/h (0 Bft)
27.09.2009 20:00 21,1 C 15,4 C 0,0 UV-I 0,0 C 53 % 73 % 0 % 1026,7 hPa 0,0 l/m 0,0 km/h (0 Bft) 0,00 h 0,0 km/h (0 Bft)
27.09.2009 21:00 20,6 C 13,5 C 0,0 UV-I 0,0 C 54 % 79 % 0 % 1026,6 hPa 0,0 l/m 0,0 km/h (0 Bft) 0,00 h 0,0 km/h (0 Bft)
27.09.2009 22:00 20,2 C 12,0 C 0,0 UV-I 0,0 C 54 % 82 % 0 % 1026,8 hPa 0,0 l/m 0,0 km/h (0 Bft) 0,00 h 0,0 km/h (0 Bft)
27.09.2009 23:00 20,0 C 11,0 C 0,0 UV-I 0,0 C 55 % 85 % 0 % 1026,6 hPa 0,0 l/m 0,0 km/h (0 Bft) 0,00 h 0,0 km/h (0 Bft)
Min-Datum _ 26.09.09 26.09.09 21.09.09 21.09.09 22.09.09 22.09.09 21.09.09 24.09.09 - 21.09.09 - 21.09.09
_ Min-Zeit 07:42 07:32 00:00 00:00 16:40 16:42 00:00 06:56 - 00:08 - 00:00
Minimum _ 18,1 C 6,4 C 0,0 UV-I 0,0 C 41 % 42 % 0 % 1023,6 hPa - 0,0 km/h (0 Bft) - 0,0 km/h (0 Bft)
Max-Datum _ 22.09.09 22.09.09 22.09.09 26.09.09 23.09.09 25.09.09 21.09.09 25.09.09 24.09.09 22.09.09 21.09.09 22.09.09
_ Max-Zeit 16:42 15:54 13:38 10:20 22:12 10:08 09:56 15:00 08:10 13:16 09:52 13:30
Maximum _ 26,3 C 24,9 C 12,1 UV-I 9,9 C 69 % 96 % 100 % 1032,9 hPa 0,5 l/m 7,2 km/h
N-NO (2 Bft)
0,03 h 21,2 km/h
N-NO (4 Bft)
Durchschnitt _ 21,1 C 14,9 C 1,5 UV-I 1,6 C 56 % 78 % 28 % 1026,8 hPa #1,5 l/m 0,9 km/h (0 Bft) #36:31 h 1,4 km/h (1 Bft)
© 2012 W. Hausmann